< < Back
Terminal Aerodrome Forecast


Current Version              Previous Versions:   1  2  3  4  5  6  7  8  9  

Terminal Aerodrome Forecast

650
FTUS42 KJAX 241120
TAFSSI
TAF
KSSI 241120Z 2412/2512 13006KT P6SM FEW250=

Latest METAR

931
SAUS70 KWBC 250300 RRJ
MTRSSI
METAR KSSI 250253Z AUTO 15006KT 10SM CLR 24/18 A3018 RMK AO2 SLP221
T02440183 53017


USA.gov is the U.S. government's official web portal to all federal, state and local government web resources and services.